createdAt,value
2023-10-06T00:03:25.264Z,13.57
2023-10-06T00:08:41.795Z,12.95
2023-10-06T00:14:01.946Z,16.08
2023-10-06T00:19:15.561Z,17.80
2023-10-06T00:24:17.053Z,14.85
2023-10-06T00:29:22.614Z,14.65
2023-10-06T00:34:26.854Z,17.95
2023-10-06T00:39:31.465Z,12.52
2023-10-06T00:44:32.992Z,12.30
2023-10-06T00:49:34.521Z,12.50
2023-10-06T00:54:36.207Z,12.45
2023-10-06T00:59:37.739Z,14.30
2023-10-06T01:04:46.995Z,11.68
2023-10-06T01:09:57.357Z,17.95
2023-10-06T01:15:17.393Z,18.42
2023-10-06T01:20:34.228Z,16.42
2023-10-06T01:25:36.411Z,10.90
2023-10-06T01:30:38.066Z,14.10
2023-10-06T01:35:43.923Z,15.65
2023-10-06T01:40:46.861Z,16.48
2023-10-06T01:45:48.425Z,15.35
2023-10-06T01:50:50.691Z,18.17
2023-10-06T01:55:53.424Z,14.85
2023-10-06T02:00:55.111Z,16.92
2023-10-06T02:05:56.631Z,20.05
2023-10-06T02:10:58.175Z,16.63
2023-10-06T02:16:00.211Z,19.17
2023-10-06T02:21:05.331Z,21.10
2023-10-06T02:26:15.429Z,24.83
2023-10-06T02:31:22.579Z,20.02
2023-10-06T02:36:24.619Z,23.42
2023-10-06T02:41:28.895Z,18.67
2023-10-06T02:46:30.906Z,14.27
2023-10-06T02:51:41.445Z,22.30
2023-10-06T02:56:45.229Z,16.60
2023-10-06T03:01:52.643Z,17.25
2023-10-06T03:12:01.127Z,23.80
2023-10-06T03:17:02.771Z,23.05
2023-10-06T03:22:07.765Z,15.55
2023-10-06T03:27:14.619Z,17.33
2023-10-06T03:32:24.103Z,15.50
2023-10-06T03:37:51.884Z,14.95
2023-10-06T03:42:57.732Z,19.00
2023-10-06T03:48:09.671Z,15.52
2023-10-06T03:53:13.716Z,15.93
2023-10-06T03:58:17.377Z,14.90
2023-10-06T04:03:20.165Z,21.15
2023-10-06T04:08:22.766Z,18.83
2023-10-06T04:13:25.325Z,13.93
2023-10-06T04:18:26.877Z,17.70
2023-10-06T04:23:28.433Z,15.48
2023-10-06T04:28:30.016Z,17.83
2023-10-06T04:33:31.571Z,13.98
2023-10-06T04:38:33.076Z,15.45
2023-10-06T04:43:35.437Z,15.68
2023-10-06T04:48:37.293Z,21.30
2023-10-06T04:53:39.437Z,17.42
2023-10-06T04:58:41.492Z,20.33
2023-10-06T05:03:47.084Z,20.35
2023-10-06T05:08:50.396Z,16.60
2023-10-06T05:13:55.322Z,17.83
2023-10-06T05:18:57.024Z,18.75
2023-10-06T05:23:58.675Z,17.10
2023-10-06T05:29:00.309Z,22.95
2023-10-06T05:34:01.834Z,18.63
2023-10-06T05:39:04.268Z,15.00
2023-10-06T05:44:08.436Z,30.92
2023-10-06T05:49:12.381Z,17.67
2023-10-06T05:54:20.128Z,16.83
2023-10-06T05:59:22.828Z,24.85
2023-10-06T06:04:28.653Z,22.67
2023-10-06T06:09:31.590Z,21.13
2023-10-06T06:14:33.445Z,22.85
2023-10-06T06:19:35.010Z,19.67
2023-10-06T06:24:39.182Z,17.75
2023-10-06T06:29:40.773Z,17.90
2023-10-06T06:34:43.143Z,22.77
2023-10-06T06:39:45.719Z,22.45
2023-10-06T06:44:49.397Z,20.27
2023-10-06T06:49:51.174Z,20.77
2023-10-06T06:54:52.606Z,18.52
2023-10-06T06:59:54.167Z,19.17
2023-10-06T07:04:56.425Z,23.40
2023-10-06T07:09:57.919Z,20.42
2023-10-06T07:14:59.451Z,21.02
2023-10-06T07:20:02.024Z,25.35
2023-10-06T07:25:05.491Z,23.40
2023-10-06T07:30:11.155Z,19.33
2023-10-06T07:35:15.128Z,26.70
2023-10-06T07:40:22.523Z,32.05
2023-10-06T07:45:27.846Z,28.30
2023-10-06T07:50:34.369Z,26.60
2023-10-06T07:55:35.901Z,19.20
2023-10-06T08:00:40.282Z,25.48
2023-10-06T08:05:42.314Z,20.75
2023-10-06T08:10:43.852Z,25.77
2023-10-06T08:15:46.325Z,21.52
2023-10-06T08:20:48.049Z,21.70
2023-10-06T08:31:00.106Z,21.13
2023-10-06T08:36:03.021Z,25.10
2023-10-06T08:41:05.836Z,22.63
2023-10-06T08:46:08.297Z,22.55
2023-10-06T08:51:15.267Z,20.23
2023-10-06T08:56:17.020Z,32.03
2023-10-06T09:01:19.669Z,22.33
2023-10-06T09:06:21.166Z,21.98
2023-10-06T09:11:41.992Z,22.00
2023-10-06T09:16:51.061Z,25.08
2023-10-06T09:22:03.571Z,26.67
2023-10-06T09:27:21.244Z,24.38
2023-10-06T09:32:24.922Z,25.17
2023-10-06T09:37:26.418Z,23.02
2023-10-06T09:42:32.299Z,18.40
2023-10-06T09:47:44.099Z,23.05
2023-10-06T09:52:48.424Z,21.52
2023-10-06T09:57:51.181Z,25.92
2023-10-06T10:02:54.253Z,26.80
2023-10-06T10:07:56.255Z,22.25
2023-10-06T10:13:09.112Z,18.20
2023-10-06T10:18:30.667Z,22.85
2023-10-06T10:23:32.507Z,20.17
2023-10-06T10:28:34.496Z,17.15
2023-10-06T10:33:39.016Z,20.38
2023-10-06T10:38:45.378Z,16.52
2023-10-06T10:43:50.029Z,17.07
2023-10-06T10:48:53.856Z,19.42
2023-10-06T10:53:55.373Z,18.52
2023-10-06T10:58:57.773Z,19.85
2023-10-06T11:04:13.962Z,14.07
2023-10-06T11:09:38.116Z,18.83
2023-10-06T11:14:42.129Z,21.80
2023-10-06T11:19:43.660Z,24.02
2023-10-06T11:24:46.251Z,16.80
2023-10-06T11:29:47.765Z,17.05
2023-10-06T11:34:50.524Z,20.98
2023-10-06T11:39:58.307Z,19.05
2023-10-06T11:45:01.291Z,16.50
2023-10-06T11:50:04.881Z,18.17
2023-10-06T11:55:10.308Z,18.60
2023-10-06T12:00:13.539Z,13.05
2023-10-06T12:05:15.584Z,18.73
2023-10-06T12:10:22.106Z,16.85
2023-10-06T12:15:23.596Z,16.40
2023-10-06T12:20:25.864Z,15.45
2023-10-06T12:25:28.201Z,16.98
2023-10-06T12:30:29.809Z,15.90
2023-10-06T12:35:31.713Z,18.02
2023-10-06T12:40:33.250Z,22.92
2023-10-06T12:45:34.750Z,17.13
2023-10-06T12:50:42.000Z,17.50
2023-10-06T12:55:44.344Z,17.90
2023-10-06T13:00:46.012Z,22.17
2023-10-06T13:05:48.176Z,17.75
2023-10-06T13:10:49.909Z,23.38
2023-10-06T13:15:51.601Z,16.92
2023-10-06T13:20:53.585Z,14.82
2023-10-06T13:25:56.965Z,18.80
2023-10-06T13:30:58.513Z,20.92
2023-10-06T13:36:01.623Z,20.83
2023-10-06T13:41:06.148Z,20.23
2023-10-06T13:46:07.724Z,20.98
2023-10-06T13:51:10.421Z,19.13
2023-10-06T13:56:12.171Z,18.83
2023-10-06T14:01:13.903Z,19.95
2023-10-06T14:06:15.723Z,17.30
2023-10-06T14:11:17.893Z,22.10
2023-10-06T14:16:28.694Z,18.15
2023-10-06T14:21:31.518Z,17.02
2023-10-06T14:26:33.291Z,17.20
2023-10-06T14:31:48.859Z,17.20
2023-10-06T14:36:58.553Z,18.90
2023-10-06T14:42:18.394Z,18.08
2023-10-06T14:47:19.926Z,17.75
2023-10-06T14:52:24.268Z,14.27
2023-10-06T14:57:27.804Z,15.07
2023-10-06T15:02:29.419Z,17.08
2023-10-06T15:07:30.934Z,19.08
2023-10-06T15:12:32.628Z,18.90
2023-10-06T15:17:36.061Z,18.60
2023-10-06T15:22:37.885Z,19.77
2023-10-06T15:27:39.415Z,24.88
2023-10-06T15:32:41.064Z,24.52
2023-10-06T15:37:42.577Z,23.30
2023-10-06T15:43:13.134Z,22.65
2023-10-06T15:48:24.472Z,28.02
2023-10-06T15:58:34.023Z,28.48
2023-10-06T16:03:36.398Z,24.02
2023-10-06T16:08:39.408Z,21.13
2023-10-06T16:13:46.189Z,30.83
2023-10-06T16:18:52.636Z,27.80
2023-10-06T16:23:54.126Z,27.92
2023-10-06T16:28:55.861Z,26.58
2023-10-06T16:33:58.211Z,25.15
2023-10-06T16:39:00.407Z,22.17
2023-10-06T16:44:03.194Z,29.90
2023-10-06T16:49:07.637Z,27.83
2023-10-06T16:54:11.514Z,36.63
2023-10-06T16:59:14.297Z,29.95
2023-10-06T17:04:19.325Z,28.02
2023-10-06T17:09:26.100Z,26.77
2023-10-06T17:14:27.707Z,24.80
2023-10-06T17:19:29.825Z,26.90
2023-10-06T17:24:32.184Z,28.17
2023-10-06T17:29:34.278Z,21.42
2023-10-06T17:34:35.833Z,24.65
2023-10-06T17:39:37.576Z,25.65
2023-10-06T17:44:42.735Z,34.75
2023-10-06T17:49:45.697Z,29.42
2023-10-06T17:54:47.597Z,23.00
2023-10-06T17:59:50.529Z,23.27
2023-10-06T18:04:52.390Z,27.13
2023-10-06T18:09:54.668Z,30.35
2023-10-06T18:14:56.260Z,33.08
2023-10-06T18:19:57.836Z,24.83
2023-10-06T18:24:59.273Z,27.63
2023-10-06T18:30:00.876Z,27.42
2023-10-06T18:35:05.226Z,30.38
2023-10-06T18:40:07.358Z,30.45
2023-10-06T18:45:10.986Z,27.02
2023-10-06T18:50:22.657Z,30.13
2023-10-06T18:55:24.656Z,26.63
2023-10-06T19:00:27.413Z,28.65
2023-10-06T19:05:28.937Z,30.92
2023-10-06T19:10:30.476Z,26.83
2023-10-06T19:15:32.863Z,30.15
2023-10-06T19:20:34.414Z,27.92
2023-10-06T19:25:45.304Z,36.67
2023-10-06T19:30:55.731Z,25.27
2023-10-06T19:36:09.089Z,27.42
2023-10-06T19:41:15.829Z,30.15
2023-10-06T19:46:17.602Z,31.17
2023-10-06T19:51:19.309Z,28.33
2023-10-06T19:56:25.215Z,33.33
2023-10-06T20:01:26.914Z,27.77
2023-10-06T20:06:28.510Z,23.17
2023-10-06T20:11:29.972Z,28.88
2023-10-06T20:16:31.483Z,31.00
2023-10-06T20:21:33.312Z,25.05
2023-10-06T20:26:34.893Z,17.27
2023-10-06T20:31:39.319Z,30.67
2023-10-06T20:36:41.080Z,25.63
2023-10-06T20:41:43.461Z,23.48
2023-10-06T20:46:45.152Z,25.23
2023-10-06T20:51:49.758Z,31.13
2023-10-06T20:56:52.796Z,28.23
2023-10-06T21:01:54.293Z,26.00
2023-10-06T21:06:55.929Z,28.85
2023-10-06T21:11:57.519Z,27.95
2023-10-06T21:16:59.031Z,28.30
2023-10-06T21:22:00.630Z,20.77
2023-10-06T21:27:02.292Z,28.80
2023-10-06T21:32:04.135Z,29.92
2023-10-06T21:37:05.646Z,26.23
2023-10-06T21:42:07.124Z,28.00
2023-10-06T21:47:08.713Z,33.00
2023-10-06T21:52:13.603Z,25.23
2023-10-06T21:57:15.119Z,27.85
2023-10-06T22:02:16.720Z,25.73
2023-10-06T22:07:18.292Z,28.10
2023-10-06T22:12:19.896Z,20.35
2023-10-06T22:17:21.587Z,33.10
2023-10-06T22:22:23.168Z,27.77
2023-10-06T22:27:24.774Z,28.02
2023-10-06T22:32:27.313Z,25.15
2023-10-06T22:37:30.805Z,23.55
2023-10-06T22:42:32.379Z,26.60
2023-10-06T22:47:33.956Z,24.08
2023-10-06T22:52:36.512Z,28.48
2023-10-06T22:57:39.620Z,19.80
2023-10-06T23:02:43.777Z,27.15
2023-10-06T23:07:47.967Z,29.58
2023-10-06T23:12:52.558Z,17.35
2023-10-06T23:17:57.498Z,17.75
2023-10-06T23:22:59.770Z,28.30
2023-10-06T23:28:01.384Z,19.65
2023-10-06T23:33:02.947Z,20.17
2023-10-06T23:38:12.733Z,22.60
2023-10-06T23:43:16.939Z,26.17
2023-10-06T23:48:18.562Z,24.90
2023-10-06T23:53:24.039Z,30.33
2023-10-06T23:58:25.650Z,21.30
